This is the latest recevied weather packets stored in our database for station/object N3WMC. If no packets are shown the sender has not sent any weather packets the latest 10 day(s).
| Time | Temp. | Humidity | Pressure | Rain* | Wind** | Luminosity | Snow |
|---|---|---|---|---|---|---|---|
| 1778165261 | 13.33° C | 50% | 1013.7 hPa | 0 mm | - | 552 W/m² | - |
| 1778164959 | 13.89° C | 47% | 1013.5 hPa | 0 mm | - | 249 W/m² | - |
| 1778164655 | 13.89° C | 46% | 1013.8 hPa | 0 mm | - | 582 W/m² | - |
| 1778164352 | 13.33° C | 49% | 1013.9 hPa | 0 mm | - | 330 W/m² | - |
| 1778164048 | 12.78° C | 52% | 1013.7 hPa | 0 mm | - | 458 W/m² | - |
| 1778163745 | 13.33° C | 55% | 1013.8 hPa | 0 mm | - | 93 W/m² | - |
| 1778163441 | 12.78° C | 56% | 1014 hPa | 0 mm | - | 348 W/m² | - |
| 1778163138 | 12.78° C | 54% | 1013.9 hPa | 0 mm | - | 474 W/m² | - |
| 1778162834 | 12.78° C | 57% | 1014.1 hPa | 0 mm | - | 225 W/m² | - |
| 1778162532 | 12.22° C | 56% | 1014.2 hPa | 0 mm | - | 327 W/m² | - |
| 1778162229 | 12.22° C | 60% | 1014.3 hPa | 0 mm | - | 306 W/m² | - |
| 1778161926 | 11.67° C | 60% | 1014.4 hPa | 0 mm | - | 455 W/m² | - |
| 1778161622 | 11.67° C | 61% | 1014.4 hPa | 0 mm | - | 61 W/m² | - |
| 1778161319 | 11.11° C | 59% | 1014.3 hPa | 0 mm | - | 56 W/m² | - |
| 1778161015 | 11.11° C | 64% | 1014.4 hPa | 0 mm | - | 55 W/m² | - |
| 1778160712 | 10.56° C | 66% | 1014.5 hPa | 0 mm | - | 98 W/m² | - |
| 1778160409 | 10° C | 67% | 1014.4 hPa | 0 mm | - | 58 W/m² | - |
| 1778160105 | 10° C | 66% | 1014.6 hPa | 0 mm | - | 122 W/m² | - |
| 1778159802 | 10.56° C | 64% | 1014.6 hPa | 0 mm | - | 61 W/m² | - |
| 1778159500 | 10° C | 66% | 1014.3 hPa | 0 mm | - | 214 W/m² | - |
| 1778159196 | 10° C | 70% | 1014.6 hPa | 0 mm | - | 58 W/m² | - |
| 1778158894 | 9.44° C | 70% | 1014.5 hPa | 0 mm | - | 74 W/m² | - |
| 1778158593 | 8.89° C | 77% | 1014.5 hPa | 0 mm | - | 153 W/m² | - |
| 1778158290 | 8.33° C | 78% | 1014.7 hPa | 0 mm | - | 175 W/m² | - |
| 1778157986 | 8.33° C | 79% | 1014.6 hPa | 0 mm | - | 52 W/m² | - |
* Rain latest hour (hover to see other rain measurements)
** Current wind speed in m/s (hover to see current wind gust speed)